createdAt,value
2023-03-01T00:02:12.621Z,-2.18
2023-03-01T00:04:39.104Z,-2.26
2023-03-01T00:07:05.564Z,-2.20
2023-03-01T00:09:32.026Z,-2.36
2023-03-01T00:11:58.496Z,-1.91
2023-03-01T00:14:25.250Z,-1.95
2023-03-01T00:16:51.764Z,-1.84
2023-03-01T00:19:19.200Z,-1.78
2023-03-01T00:21:45.783Z,-2.00
2023-03-01T00:24:12.333Z,-2.21
2023-03-01T00:26:38.805Z,-2.26
2023-03-01T00:29:05.294Z,-2.40
2023-03-01T00:31:32.477Z,-2.21
2023-03-01T00:34:00.769Z,-2.44
2023-03-01T00:36:30.559Z,-2.48
2023-03-01T00:38:57.252Z,-2.52
2023-03-01T00:41:23.915Z,-2.58
2023-03-01T00:43:50.789Z,-2.32
2023-03-01T00:46:18.830Z,-1.94
2023-03-01T00:48:45.627Z,-1.80
2023-03-01T00:51:23.318Z,-1.90
2023-03-01T00:53:53.620Z,-1.92
2023-03-01T00:56:20.097Z,-2.29
2023-03-01T00:58:46.692Z,-2.18
2023-03-01T01:01:18.298Z,-2.25
2023-03-01T01:03:49.578Z,-2.18
2023-03-01T01:06:20.383Z,-2.26
2023-03-01T01:08:46.889Z,-2.15
2023-03-01T01:11:13.403Z,-1.97
2023-03-01T01:13:40.297Z,-1.90
2023-03-01T01:16:07.174Z,-1.98
2023-03-01T01:18:33.736Z,-2.10
2023-03-01T01:21:05.071Z,-2.38
2023-03-01T01:23:31.529Z,-2.51
2023-03-01T01:25:57.993Z,-2.81
2023-03-01T01:28:24.569Z,-2.94
2023-03-01T01:30:51.062Z,-3.01
2023-03-01T01:33:17.543Z,-2.66
2023-03-01T01:35:46.237Z,-2.90
2023-03-01T01:38:12.755Z,-2.95
2023-03-01T01:40:48.603Z,-2.75
2023-03-01T01:43:23.473Z,-2.68
2023-03-01T01:45:50.366Z,-2.80
2023-03-01T01:48:24.633Z,-3.01
2023-03-01T01:50:57.781Z,-2.89
2023-03-01T01:53:24.244Z,-2.82
2023-03-01T01:55:54.287Z,-2.69
2023-03-01T01:58:20.608Z,-2.83
2023-03-01T02:00:47.072Z,-2.78
2023-03-01T02:03:18.288Z,-2.80
2023-03-01T02:05:55.500Z,-2.91
2023-03-01T02:08:22.657Z,-3.15
2023-03-01T02:10:55.700Z,-3.22
2023-03-01T02:13:22.165Z,-3.01
2023-03-01T02:15:48.668Z,-3.02
2023-03-01T02:18:17.370Z,-2.91
2023-03-01T02:20:51.691Z,-2.72
2023-03-01T02:23:18.162Z,-2.80
2023-03-01T02:26:05.522Z,-2.79
2023-03-01T02:28:36.193Z,-3.04
2023-03-01T02:31:21.698Z,-2.94
2023-03-01T02:33:49.420Z,-2.86
2023-03-01T02:36:21.212Z,-3.11
2023-03-01T02:38:48.813Z,-3.33
2023-03-01T02:41:16.401Z,-3.35
2023-03-01T02:43:42.910Z,-3.32
2023-03-01T02:46:17.392Z,-3.35
2023-03-01T02:48:48.959Z,-3.41
2023-03-01T02:51:57.512Z,-3.09
2023-03-01T02:54:49.844Z,-2.96
2023-03-01T02:57:16.515Z,-3.15
2023-03-01T02:59:43.545Z,-3.47
2023-03-01T03:02:36.931Z,-3.30
2023-03-01T03:05:27.592Z,-3.04
2023-03-01T03:07:54.157Z,-3.05
2023-03-01T03:10:28.988Z,-3.11
2023-03-01T03:12:58.788Z,-3.33
2023-03-01T03:15:25.414Z,-3.19
2023-03-01T03:17:52.421Z,-3.14
2023-03-01T03:20:20.343Z,-3.11
2023-03-01T03:22:48.147Z,-3.04
2023-03-01T03:25:14.662Z,-2.87
2023-03-01T03:27:41.853Z,-2.91
2023-03-01T03:30:09.877Z,-3.16
2023-03-01T03:32:37.373Z,-3.27
2023-03-01T03:35:10.326Z,-3.29
2023-03-01T03:37:56.906Z,-3.19
2023-03-01T03:40:23.391Z,-3.23
2023-03-01T03:42:49.862Z,-3.20
2023-03-01T03:45:17.212Z,-3.07
2023-03-01T03:47:44.002Z,-3.24
2023-03-01T03:50:17.884Z,-3.37
2023-03-01T03:52:44.388Z,-3.45
2023-03-01T03:55:14.493Z,-3.55
2023-03-01T03:57:41.132Z,-3.58
2023-03-01T04:00:14.199Z,-3.67
2023-03-01T04:02:42.040Z,-3.54
2023-03-01T04:05:10.002Z,-3.40
2023-03-01T04:07:37.165Z,-3.51
2023-03-01T04:10:08.001Z,-3.35
2023-03-01T04:12:35.097Z,-3.32
2023-03-01T04:15:14.603Z,-3.04
2023-03-01T04:17:40.921Z,-3.07
2023-03-01T04:20:08.688Z,-3.17
2023-03-01T04:22:35.150Z,-3.37
2023-03-01T04:25:02.952Z,-3.17
2023-03-01T04:27:29.410Z,-3.42
2023-03-01T04:29:55.878Z,-3.55
2023-03-01T04:32:22.375Z,-3.72
2023-03-01T04:34:48.844Z,-3.63
2023-03-01T04:37:16.899Z,-3.69
2023-03-01T04:39:48.596Z,-3.68
2023-03-01T04:42:18.185Z,-3.52
2023-03-01T04:44:45.219Z,-3.61
2023-03-01T04:47:11.689Z,-3.36
2023-03-01T04:49:38.164Z,-3.34
2023-03-01T04:52:04.963Z,-3.40
2023-03-01T04:54:32.051Z,-3.35
2023-03-01T04:56:58.558Z,-3.30
2023-03-01T04:59:25.289Z,-3.25
2023-03-01T05:01:52.432Z,-3.28
2023-03-01T05:04:19.163Z,-3.18
2023-03-01T05:06:45.683Z,-3.22
2023-03-01T05:09:12.393Z,-3.25
2023-03-01T05:11:39.052Z,-3.10
2023-03-01T05:14:06.454Z,-2.95
2023-03-01T05:16:35.949Z,-3.18
2023-03-01T05:19:12.202Z,-3.22
2023-03-01T05:22:02.333Z,-3.10
2023-03-01T05:24:29.522Z,-3.37
2023-03-01T05:26:56.168Z,-3.35
2023-03-01T05:29:25.914Z,-3.46
2023-03-01T05:31:54.316Z,-3.58
2023-03-01T05:34:24.883Z,-3.27
2023-03-01T05:36:54.004Z,-3.36
2023-03-01T05:39:22.505Z,-3.26
2023-03-01T05:41:49.930Z,-3.43
2023-03-01T05:44:16.908Z,-3.31
2023-03-01T05:46:43.695Z,-3.16
2023-03-01T05:49:10.183Z,-3.16
2023-03-01T05:51:36.894Z,-3.25
2023-03-01T05:54:03.478Z,-3.05
2023-03-01T05:56:30.587Z,-3.14
2023-03-01T05:58:57.185Z,-3.16
2023-03-01T06:01:23.678Z,-3.30
2023-03-01T06:03:50.145Z,-3.33
2023-03-01T06:06:16.718Z,-3.41
2023-03-01T06:08:43.198Z,-3.43
2023-03-01T06:11:09.718Z,-3.35
2023-03-01T06:13:36.482Z,-3.36
2023-03-01T06:16:06.306Z,-3.25
2023-03-01T06:18:32.808Z,-3.17
2023-03-01T06:20:59.290Z,-3.06
2023-03-01T06:23:25.831Z,-3.22
2023-03-01T06:25:52.327Z,-3.25
2023-03-01T06:28:18.782Z,-2.98
2023-03-01T06:30:45.295Z,-2.98
2023-03-01T06:33:11.762Z,-2.94
2023-03-01T06:35:38.351Z,-2.95
2023-03-01T06:38:05.003Z,-2.76
2023-03-01T06:40:32.207Z,-2.87
2023-03-01T06:42:58.885Z,-2.79
2023-03-01T06:45:25.467Z,-2.73
2023-03-01T06:47:51.935Z,-2.83
2023-03-01T06:50:18.725Z,-2.80
2023-03-01T06:55:13.176Z,-2.69
2023-03-01T06:57:39.655Z,-2.69
2023-03-01T07:00:06.855Z,-2.64
2023-03-01T07:02:33.356Z,-2.55
2023-03-01T07:04:59.817Z,-2.49
2023-03-01T07:07:26.323Z,-2.47
2023-03-01T07:09:54.133Z,-2.14
2023-03-01T07:12:20.657Z,-2.10
2023-03-01T07:14:47.133Z,-2.05
2023-03-01T07:17:13.634Z,-1.91
2023-03-01T07:19:40.111Z,-1.90
2023-03-01T07:22:08.767Z,-1.97
2023-03-01T07:24:35.271Z,-1.65
2023-03-01T07:27:01.759Z,-1.75
2023-03-01T07:29:29.756Z,-1.76
2023-03-01T07:31:56.281Z,-1.50
2023-03-01T07:34:22.745Z,-1.48
2023-03-01T07:36:49.299Z,-1.45
2023-03-01T07:39:16.735Z,-1.22
2023-03-01T07:41:44.528Z,-1.18
2023-03-01T07:44:11.744Z,-1.07
2023-03-01T07:46:38.311Z,-1.00
2023-03-01T07:49:05.543Z,-0.90
2023-03-01T07:51:32.099Z,-0.83
2023-03-01T07:53:58.559Z,-0.79
2023-03-01T07:56:25.091Z,-0.73
2023-03-01T07:58:51.569Z,-0.67
2023-03-01T08:01:20.706Z,-0.56
2023-03-01T08:03:47.354Z,-0.47
2023-03-01T08:06:15.508Z,-0.30
2023-03-01T08:08:41.995Z,-0.10
2023-03-01T08:11:09.392Z,-0.08
2023-03-01T08:13:35.894Z,0.03
2023-03-01T08:16:04.008Z,0.22
2023-03-01T08:18:30.573Z,0.30
2023-03-01T08:20:57.049Z,0.21
2023-03-01T08:23:23.567Z,0.38
2023-03-01T08:25:50.234Z,0.45
2023-03-01T08:28:16.747Z,0.52
2023-03-01T08:30:43.228Z,0.51
2023-03-01T08:33:09.766Z,0.65
2023-03-01T08:35:36.284Z,0.72
2023-03-01T08:38:02.789Z,0.95
2023-03-01T08:40:29.276Z,0.93
2023-03-01T08:42:55.771Z,0.82
2023-03-01T08:45:22.277Z,0.78
2023-03-01T08:47:48.807Z,0.86
2023-03-01T08:50:15.502Z,0.77
2023-03-01T08:52:42.025Z,0.84
2023-03-01T08:55:09.050Z,0.80
2023-03-01T08:57:35.535Z,1.11
2023-03-01T09:00:02.086Z,0.83
2023-03-01T09:02:28.714Z,0.80
2023-03-01T09:04:55.206Z,1.03
2023-03-01T09:07:21.699Z,1.11
2023-03-01T09:09:48.206Z,1.31
2023-03-01T09:12:14.781Z,1.39
2023-03-01T09:14:42.135Z,1.16
2023-03-01T09:17:08.629Z,1.21
2023-03-01T09:19:35.151Z,1.32
2023-03-01T09:22:01.820Z,1.41
2023-03-01T09:24:28.317Z,1.16
2023-03-01T09:26:55.696Z,1.27
2023-03-01T09:29:22.188Z,1.29
2023-03-01T09:31:48.748Z,1.38
2023-03-01T09:34:17.119Z,1.38
2023-03-01T09:36:43.649Z,1.36
2023-03-01T09:39:10.144Z,1.50
2023-03-01T09:41:49.356Z,1.55
2023-03-01T09:44:34.231Z,1.53
2023-03-01T09:47:00.881Z,1.63
2023-03-01T09:49:31.338Z,2.00
2023-03-01T09:52:20.342Z,2.06
2023-03-01T09:54:47.635Z,2.21
2023-03-01T09:57:20.538Z,2.31
2023-03-01T10:00:05.386Z,2.57
2023-03-01T10:02:39.533Z,2.60
2023-03-01T10:05:32.419Z,2.58
2023-03-01T10:08:24.656Z,2.54
2023-03-01T10:10:51.170Z,2.54
2023-03-01T10:13:22.409Z,2.61
2023-03-01T10:15:56.235Z,2.62
2023-03-01T10:18:30.318Z,2.73
2023-03-01T10:20:59.756Z,2.70
2023-03-01T10:23:28.934Z,2.64
2023-03-01T10:25:58.317Z,2.52
2023-03-01T10:28:32.345Z,2.93
2023-03-01T10:30:59.423Z,2.89
2023-03-01T10:33:30.472Z,2.64
2023-03-01T10:35:57.010Z,2.67
2023-03-01T10:38:23.568Z,2.82
2023-03-01T10:41:19.524Z,3.10
2023-03-01T10:43:53.603Z,2.90
2023-03-01T10:46:30.929Z,3.08
2023-03-01T10:49:14.767Z,3.13
2023-03-01T10:51:42.041Z,3.15
2023-03-01T10:54:18.867Z,3.26
2023-03-01T10:56:54.591Z,2.97
2023-03-01T10:59:33.082Z,3.10
2023-03-01T11:02:25.383Z,3.35
2023-03-01T11:05:14.012Z,3.39
2023-03-01T11:07:54.066Z,3.55
2023-03-01T11:10:31.333Z,3.66
2023-03-01T11:13:16.021Z,3.86
2023-03-01T11:15:42.584Z,3.76
2023-03-01T11:18:20.453Z,3.82
2023-03-01T11:20:47.026Z,4.03
2023-03-01T11:23:14.236Z,4.25
2023-03-01T11:25:45.258Z,4.43
2023-03-01T11:28:15.562Z,4.47
2023-03-01T11:31:05.591Z,4.30
2023-03-01T11:33:57.667Z,4.36
2023-03-01T11:36:50.495Z,4.34
2023-03-01T11:39:33.837Z,4.24
2023-03-01T11:42:19.360Z,3.78
2023-03-01T11:44:47.318Z,3.59
2023-03-01T11:47:32.339Z,4.00
2023-03-01T11:50:07.874Z,3.77
2023-03-01T11:52:53.412Z,4.06
2023-03-01T11:55:37.694Z,4.53
2023-03-01T11:58:15.136Z,4.90
2023-03-01T12:00:56.719Z,4.81
2023-03-01T12:03:43.485Z,4.40
2023-03-01T12:06:25.199Z,4.37
2023-03-01T12:09:02.352Z,4.47
2023-03-01T12:11:59.142Z,4.72
2023-03-01T12:14:47.443Z,5.03
2023-03-01T12:17:45.982Z,5.67
2023-03-01T12:20:15.574Z,5.30
2023-03-01T12:22:54.980Z,5.65
2023-03-01T12:25:40.704Z,5.54
2023-03-01T12:28:24.976Z,5.09
2023-03-01T12:31:01.483Z,4.85
2023-03-01T12:33:46.818Z,5.22
2023-03-01T12:36:16.571Z,5.71
2023-03-01T12:38:47.277Z,4.93
2023-03-01T12:41:52.441Z,5.43
2023-03-01T12:44:29.231Z,5.31
2023-03-01T12:47:17.140Z,6.08
2023-03-01T12:49:49.262Z,6.16
2023-03-01T12:52:36.842Z,5.69
2023-03-01T12:55:03.774Z,5.16
2023-03-01T12:57:38.121Z,5.39
2023-03-01T13:00:38.176Z,5.63
2023-03-01T13:03:17.665Z,5.86
2023-03-01T13:06:09.134Z,6.03
2023-03-01T13:08:42.875Z,6.66
2023-03-01T13:11:17.691Z,6.24
2023-03-01T13:13:44.161Z,5.90
2023-03-01T13:16:40.785Z,5.42
2023-03-01T13:19:11.329Z,5.64
2023-03-01T13:21:37.823Z,5.78
2023-03-01T13:24:04.589Z,6.18
2023-03-01T13:26:31.549Z,6.37
2023-03-01T13:28:58.418Z,5.85
2023-03-01T13:31:27.823Z,6.02
2023-03-01T13:33:55.682Z,6.01
2023-03-01T13:36:49.076Z,6.06
2023-03-01T13:39:32.279Z,5.62
2023-03-01T13:41:58.875Z,5.15
2023-03-01T13:44:25.414Z,4.88
2023-03-01T13:46:52.686Z,5.30
2023-03-01T13:49:23.747Z,5.37
2023-03-01T13:51:50.516Z,5.54
2023-03-01T13:54:19.414Z,6.26
2023-03-01T13:56:45.880Z,5.51
2023-03-01T13:59:20.119Z,5.49
2023-03-01T14:01:53.341Z,5.94
2023-03-01T14:04:22.251Z,5.80
2023-03-01T14:06:48.746Z,5.63
2023-03-01T14:09:24.749Z,5.61
2023-03-01T14:12:03.438Z,5.81
2023-03-01T14:14:46.353Z,5.60
2023-03-01T14:17:37.942Z,5.56
2023-03-01T14:20:12.759Z,5.40
2023-03-01T14:22:39.393Z,5.35
2023-03-01T14:25:26.036Z,5.17
2023-03-01T14:28:17.524Z,5.15
2023-03-01T14:30:45.752Z,5.27
2023-03-01T14:33:26.243Z,5.28
2023-03-01T14:36:00.602Z,5.06
2023-03-01T14:38:35.593Z,4.83
2023-03-01T14:41:08.290Z,4.91
2023-03-01T14:43:34.778Z,4.61
2023-03-01T14:46:01.291Z,4.45
2023-03-01T14:48:28.179Z,4.31
2023-03-01T14:50:54.698Z,4.22
2023-03-01T14:53:25.891Z,4.13
2023-03-01T14:55:56.930Z,4.13
2023-03-01T14:58:25.555Z,4.04
2023-03-01T15:00:54.381Z,4.06
2023-03-01T15:03:38.099Z,4.05
2023-03-01T15:06:05.334Z,3.93
2023-03-01T15:08:34.015Z,3.93
2023-03-01T15:11:02.017Z,3.98
2023-03-01T15:13:31.862Z,3.93
2023-03-01T15:16:03.755Z,3.92
2023-03-01T15:18:30.426Z,3.79
2023-03-01T15:20:57.023Z,3.79
2023-03-01T15:23:24.291Z,3.72
2023-03-01T15:25:57.310Z,3.79
2023-03-01T15:28:53.750Z,3.76
2023-03-01T15:31:21.442Z,3.74
2023-03-01T15:33:48.258Z,3.64
2023-03-01T15:36:34.807Z,3.63
2023-03-01T15:39:01.535Z,3.56
2023-03-01T15:41:28.867Z,3.55
2023-03-01T15:43:56.483Z,3.55
2023-03-01T15:46:31.470Z,3.57
2023-03-01T15:49:17.404Z,3.44
2023-03-01T15:51:43.869Z,3.45
2023-03-01T15:54:19.693Z,3.44
2023-03-01T15:56:46.223Z,3.41
2023-03-01T15:59:14.333Z,3.34
2023-03-01T16:01:41.762Z,3.32
2023-03-01T16:04:17.114Z,3.28
2023-03-01T16:06:43.624Z,3.22
2023-03-01T16:09:10.113Z,3.19
2023-03-01T16:11:37.859Z,3.21
2023-03-01T16:14:04.399Z,3.13
2023-03-01T16:16:31.311Z,3.15
2023-03-01T16:18:58.058Z,3.11
2023-03-01T16:21:25.653Z,3.09
2023-03-01T16:23:52.242Z,3.09
2023-03-01T16:26:21.381Z,3.09
2023-03-01T16:28:48.181Z,2.95
2023-03-01T16:31:17.856Z,2.91
2023-03-01T16:33:50.305Z,2.93
2023-03-01T16:36:17.986Z,2.94
2023-03-01T16:38:44.545Z,2.82
2023-03-01T16:41:13.262Z,2.82
2023-03-01T16:43:40.536Z,2.89
2023-03-01T16:46:18.020Z,2.59
2023-03-01T16:48:44.528Z,2.58
2023-03-01T16:51:11.110Z,2.58
2023-03-01T16:53:37.668Z,2.62
2023-03-01T16:56:05.495Z,2.58
2023-03-01T16:58:31.980Z,2.56
2023-03-01T17:01:13.266Z,2.56
2023-03-01T17:03:40.095Z,2.67
2023-03-01T17:06:08.464Z,2.60
2023-03-01T17:08:35.123Z,2.61
2023-03-01T17:11:12.937Z,2.31
2023-03-01T17:13:39.602Z,2.28
2023-03-01T17:16:07.241Z,2.17
2023-03-01T17:18:33.907Z,2.13
2023-03-01T17:21:00.436Z,2.12
2023-03-01T17:23:27.874Z,2.06
2023-03-01T17:25:55.896Z,2.06
2023-03-01T17:28:23.437Z,1.88
2023-03-01T17:30:49.952Z,1.67
2023-03-01T17:33:16.661Z,1.59
2023-03-01T17:35:46.154Z,1.43
2023-03-01T17:38:13.810Z,1.07
2023-03-01T17:40:40.286Z,0.94
2023-03-01T17:43:06.769Z,1.00
2023-03-01T17:45:33.288Z,1.28
2023-03-01T17:47:59.750Z,1.43
2023-03-01T17:50:26.259Z,1.39
2023-03-01T17:52:52.785Z,1.28
2023-03-01T17:55:19.349Z,1.34
2023-03-01T17:57:45.817Z,0.82
2023-03-01T18:00:13.081Z,0.81
2023-03-01T18:02:39.633Z,1.08
2023-03-01T18:05:06.602Z,0.92
2023-03-01T18:07:33.083Z,0.76
2023-03-01T18:09:59.563Z,0.77
2023-03-01T18:12:26.087Z,0.89
2023-03-01T18:14:55.411Z,0.73
2023-03-01T18:17:23.823Z,1.03
2023-03-01T18:19:50.905Z,1.06
2023-03-01T18:22:17.412Z,1.03
2023-03-01T18:24:43.909Z,0.99
2023-03-01T18:28:10.259Z,0.72
2023-03-01T18:30:36.883Z,0.74
2023-03-01T18:33:03.335Z,0.38
2023-03-01T18:35:31.483Z,0.20
2023-03-01T18:37:58.040Z,0.18
2023-03-01T18:40:24.626Z,0.07
2023-03-01T18:42:51.140Z,0.27
2023-03-01T18:45:19.272Z,0.29
2023-03-01T18:47:47.397Z,0.10
2023-03-01T18:50:13.859Z,0.19
2023-03-01T18:52:40.337Z,0.12
2023-03-01T18:55:06.879Z,0.05
2023-03-01T18:57:33.351Z,0.02
2023-03-01T18:59:59.813Z,0.05
2023-03-01T19:02:26.338Z,0.16
2023-03-01T19:04:52.878Z,0.33
2023-03-01T19:07:20.412Z,0.11
2023-03-01T19:09:46.904Z,-0.02
2023-03-01T19:12:13.386Z,0.00
2023-03-01T19:14:39.861Z,0.11
2023-03-01T19:17:06.371Z,0.19
2023-03-01T19:19:32.882Z,0.18
2023-03-01T19:22:05.680Z,0.32
2023-03-01T19:24:32.897Z,0.30
2023-03-01T19:26:59.372Z,0.38
2023-03-01T19:29:26.306Z,0.34
2023-03-01T19:31:52.825Z,0.40
2023-03-01T19:34:19.390Z,0.41
2023-03-01T19:36:47.268Z,0.42
2023-03-01T19:39:14.149Z,0.46
2023-03-01T19:41:41.120Z,0.49
2023-03-01T19:44:08.594Z,0.45
2023-03-01T19:46:35.651Z,0.43
2023-03-01T19:49:03.385Z,0.29
2023-03-01T19:51:30.545Z,0.35
2023-03-01T19:53:57.068Z,0.24
2023-03-01T19:56:23.542Z,0.11
2023-03-01T19:58:51.125Z,0.16
2023-03-01T20:01:19.519Z,0.28
2023-03-01T20:03:46.094Z,0.18
2023-03-01T20:06:17.259Z,0.07
2023-03-01T20:08:44.604Z,0.09
2023-03-01T20:11:12.001Z,0.02
2023-03-01T20:13:38.519Z,0.50
2023-03-01T20:16:05.384Z,0.49
2023-03-01T20:18:31.919Z,0.57
2023-03-01T20:20:58.498Z,0.70
2023-03-01T20:23:25.011Z,0.59
2023-03-01T20:25:51.596Z,0.48
2023-03-01T20:28:18.484Z,0.30
2023-03-01T20:30:45.357Z,-0.15
2023-03-01T20:33:11.902Z,-0.28
2023-03-01T20:35:42.446Z,-0.10
2023-03-01T20:38:08.934Z,-0.03
2023-03-01T20:40:36.469Z,0.05
2023-03-01T20:43:02.935Z,-0.03
2023-03-01T20:45:29.410Z,-0.01
2023-03-01T20:47:55.885Z,-0.05
2023-03-01T20:50:22.454Z,-0.14
2023-03-01T20:52:49.066Z,-0.16
2023-03-01T20:55:15.549Z,-0.19
2023-03-01T20:57:42.143Z,-0.12
2023-03-01T21:00:09.564Z,-0.29
2023-03-01T21:02:36.099Z,-0.19
2023-03-01T21:05:02.651Z,-0.17
2023-03-01T21:07:29.161Z,-0.41
2023-03-01T21:09:55.735Z,-0.75
2023-03-01T21:12:22.577Z,-0.64
2023-03-01T21:14:49.128Z,-0.54
2023-03-01T21:17:16.685Z,-0.29
2023-03-01T21:19:43.791Z,-0.12
2023-03-01T21:22:14.289Z,-0.17
2023-03-01T21:24:42.298Z,0.08
2023-03-01T21:27:09.618Z,0.25
2023-03-01T21:29:40.479Z,0.26
2023-03-01T21:32:07.311Z,0.21
2023-03-01T21:34:34.361Z,0.24
2023-03-01T21:37:01.788Z,-0.08
2023-03-01T21:39:29.120Z,-0.11
2023-03-01T21:41:56.518Z,-0.12
2023-03-01T21:44:23.973Z,-0.23
2023-03-01T21:46:50.470Z,-0.15
2023-03-01T21:49:16.980Z,-0.15
2023-03-01T21:51:43.492Z,-0.19
2023-03-01T21:54:12.331Z,-0.20
2023-03-01T21:56:39.865Z,-0.25
2023-03-01T21:59:17.023Z,-0.14
2023-03-01T22:01:43.528Z,-0.21
2023-03-01T22:04:10.060Z,-0.46
2023-03-01T22:06:41.282Z,-0.43
2023-03-01T22:09:18.625Z,-0.45
2023-03-01T22:11:48.790Z,-0.49
2023-03-01T22:14:15.649Z,-0.62
2023-03-01T22:16:43.296Z,-0.66
2023-03-01T22:19:09.930Z,-0.56
2023-03-01T22:21:39.278Z,-0.59
2023-03-01T22:24:06.345Z,-0.63
2023-03-01T22:26:37.766Z,-0.66
2023-03-01T22:29:07.180Z,-0.55
2023-03-01T22:31:33.968Z,-0.46
2023-03-01T22:34:00.555Z,-0.56
2023-03-01T22:36:27.231Z,-0.77
2023-03-01T22:38:59.848Z,-0.69
2023-03-01T22:41:30.226Z,-0.52
2023-03-01T22:43:56.803Z,-0.65
2023-03-01T22:46:23.785Z,-0.60
2023-03-01T22:48:50.340Z,-0.63
2023-03-01T22:51:22.073Z,-0.48
2023-03-01T22:53:48.605Z,-0.67
2023-03-01T22:56:17.080Z,-0.82
2023-03-01T22:58:43.588Z,-0.64
2023-03-01T23:01:15.379Z,-0.42
2023-03-01T23:03:41.882Z,-0.40
2023-03-01T23:06:08.510Z,-0.27
2023-03-01T23:08:34.992Z,-0.28
2023-03-01T23:11:01.481Z,-0.30
2023-03-01T23:13:28.034Z,-0.28
2023-03-01T23:15:55.478Z,-0.33
2023-03-01T23:18:22.230Z,-0.20
2023-03-01T23:20:48.792Z,-0.52
2023-03-01T23:23:15.291Z,-0.73
2023-03-01T23:25:41.763Z,-0.91
2023-03-01T23:28:08.248Z,-0.79
2023-03-01T23:30:34.839Z,-0.79
2023-03-01T23:33:01.354Z,-0.78
2023-03-01T23:35:27.843Z,-0.75
2023-03-01T23:37:54.640Z,-0.64
2023-03-01T23:40:21.142Z,-0.85
2023-03-01T23:42:47.618Z,-0.96
2023-03-01T23:45:14.078Z,-1.00
2023-03-01T23:47:40.557Z,-1.03
2023-03-01T23:50:07.218Z,-1.07
2023-03-01T23:52:36.714Z,-0.94
2023-03-01T23:55:03.260Z,-0.90
2023-03-01T23:57:29.748Z,-0.82
2023-03-01T23:59:56.273Z,-0.78
